createdAt,value
2019-01-09T00:01:24.455Z,100779.00
2019-01-09T00:04:28.316Z,100778.98
2019-01-09T00:07:32.291Z,100783.38
2019-01-09T00:10:36.176Z,100784.22
2019-01-09T00:13:40.074Z,100796.91
2019-01-09T00:16:43.977Z,100797.34
2019-01-09T00:19:47.923Z,100803.48
2019-01-09T00:22:51.797Z,100817.03
2019-01-09T00:25:55.728Z,100810.91
2019-01-09T00:28:59.701Z,100812.22
2019-01-09T00:32:03.612Z,100827.98
2019-01-09T00:35:07.567Z,100826.67
2019-01-09T00:38:11.549Z,100830.14
2019-01-09T00:41:15.425Z,100833.23
2019-01-09T00:44:19.330Z,100835.39
2019-01-09T00:47:23.191Z,100840.66
2019-01-09T00:50:27.176Z,100852.91
2019-01-09T00:53:31.136Z,100853.77
2019-01-09T00:56:35.082Z,100863.41
2019-01-09T00:59:39.019Z,100869.95
2019-01-09T01:03:32.638Z,100870.81
2019-01-09T01:07:06.217Z,100876.05
2019-01-09T01:10:45.720Z,100870.81
2019-01-09T01:14:17.226Z,100888.73
2019-01-09T01:17:51.003Z,100887.42
2019-01-09T01:21:02.561Z,100894.42
2019-01-09T01:24:45.813Z,100902.29
2019-01-09T01:28:18.103Z,100906.68
2019-01-09T01:31:55.090Z,100904.04
2019-01-09T01:35:38.924Z,100911.91
2019-01-09T01:39:19.053Z,100912.77
2019-01-09T01:43:22.068Z,100931.14
2019-01-09T01:47:10.193Z,100939.02
2019-01-09T01:50:41.368Z,100934.64
2019-01-09T01:54:12.025Z,100936.35
2019-01-09T01:57:55.222Z,100954.73
2019-01-09T02:01:37.840Z,100964.77
2019-01-09T02:05:14.434Z,100961.31
2019-01-09T02:09:05.698Z,100970.50
2019-01-09T02:12:49.609Z,100974.88
2019-01-09T02:16:30.676Z,100977.88
2019-01-09T02:19:43.527Z,100984.48
2019-01-09T02:23:12.001Z,100982.67
2019-01-09T02:26:29.645Z,100991.51
2019-01-09T02:30:03.785Z,100991.45
2019-01-09T02:33:07.566Z,100994.10
2019-01-09T02:36:13.580Z,100999.35
2019-01-09T02:39:16.990Z,101011.61
2019-01-09T02:42:20.889Z,101015.54
2019-01-09T02:45:24.688Z,101013.81
2019-01-09T02:48:28.521Z,101015.12
2019-01-09T02:51:32.402Z,101024.70
2019-01-09T02:54:36.220Z,101019.45
2019-01-09T02:57:40.016Z,101020.78
2019-01-09T03:00:43.831Z,101031.70
2019-01-09T03:03:47.621Z,101030.74
2019-01-09T03:06:51.425Z,101032.56
2019-01-09T03:09:55.313Z,101044.77
2019-01-09T03:12:59.194Z,101050.93
2019-01-09T03:16:03.150Z,101047.00
2019-01-09T03:19:07.039Z,101043.86
2019-01-09T03:22:10.982Z,101053.49
2019-01-09T03:25:14.944Z,101046.06
2019-01-09T03:28:18.797Z,101063.11
2019-01-09T03:31:22.673Z,101053.52
2019-01-09T03:34:26.544Z,101053.49
2019-01-09T03:37:30.429Z,101063.13
2019-01-09T03:40:34.304Z,101052.17
2019-01-09T03:43:38.184Z,101065.22
2019-01-09T03:46:42.128Z,101066.52
2019-01-09T03:49:46.007Z,101073.05
2019-01-09T03:52:49.817Z,101063.86
2019-01-09T03:55:53.633Z,101063.48
2019-01-09T03:58:57.608Z,101072.64
2019-01-09T04:02:01.514Z,101071.73
2019-01-09T04:05:05.491Z,101086.62
2019-01-09T04:08:09.316Z,101088.83
2019-01-09T04:11:13.130Z,101084.87
2019-01-09T04:14:17.089Z,101085.32
2019-01-09T04:17:20.893Z,101103.22
2019-01-09T04:20:24.766Z,101104.97
2019-01-09T04:23:28.598Z,101101.50
2019-01-09T04:26:32.405Z,101104.97
2019-01-09T04:29:36.232Z,101101.45
2019-01-09T04:32:40.095Z,101116.30
2019-01-09T04:35:43.843Z,101106.73
2019-01-09T04:38:47.707Z,101110.16
2019-01-09T04:41:51.557Z,101112.74
2019-01-09T04:44:55.339Z,101119.36
2019-01-09T04:47:59.143Z,101123.69
2019-01-09T04:51:02.959Z,101110.99
2019-01-09T04:54:06.842Z,101116.66
2019-01-09T04:57:10.664Z,101130.17
2019-01-09T05:00:14.533Z,101130.64
2019-01-09T05:03:18.339Z,101146.41
2019-01-09T05:06:22.128Z,101136.73
2019-01-09T05:09:25.931Z,101142.52
2019-01-09T05:12:29.742Z,101147.25
2019-01-09T05:15:33.557Z,101150.39
2019-01-09T05:18:37.483Z,101141.19
2019-01-09T05:21:41.274Z,101147.30
2019-01-09T05:24:45.706Z,101154.23
2019-01-09T05:27:49.765Z,101159.98
2019-01-09T05:30:53.591Z,101165.17
2019-01-09T05:33:57.430Z,101172.16
2019-01-09T05:37:09.190Z,101172.96
2019-01-09T05:40:06.889Z,101171.74
2019-01-09T05:43:10.689Z,101179.09
2019-01-09T05:46:14.504Z,101180.45
2019-01-09T05:49:18.305Z,101183.94
2019-01-09T05:52:22.095Z,101188.33
2019-01-09T05:55:25.868Z,101202.75
2019-01-09T05:58:29.673Z,101198.81
2019-01-09T06:01:33.536Z,101196.20
2019-01-09T06:04:37.351Z,101202.73
2019-01-09T06:07:41.314Z,101208.53
2019-01-09T06:10:45.111Z,101224.09
2019-01-09T06:13:48.939Z,101227.22
2019-01-09T06:16:52.749Z,101218.98
2019-01-09T06:19:56.577Z,101215.93
2019-01-09T06:23:00.444Z,101235.16
2019-01-09T06:26:04.345Z,101217.62
2019-01-09T06:29:08.146Z,101228.97
2019-01-09T06:32:11.920Z,101238.56
2019-01-09T06:35:15.803Z,101238.14
2019-01-09T06:38:19.695Z,101242.50
2019-01-09T06:41:23.474Z,101248.63
2019-01-09T06:44:27.367Z,101249.44
2019-01-09T06:47:31.172Z,101259.55
2019-01-09T06:50:35.018Z,101259.07
2019-01-09T06:53:38.809Z,101270.89
2019-01-09T06:56:42.594Z,101272.67
2019-01-09T06:59:46.389Z,101270.00
2019-01-09T07:02:50.213Z,101285.26
2019-01-09T07:05:54.017Z,101288.75
2019-01-09T07:08:57.825Z,101278.70
2019-01-09T07:12:01.631Z,101277.75
2019-01-09T07:15:11.284Z,101286.48
2019-01-09T07:18:11.259Z,101294.77
2019-01-09T07:21:15.060Z,101309.18
2019-01-09T07:24:18.934Z,101308.37
2019-01-09T07:27:22.751Z,101313.11
2019-01-09T07:30:26.704Z,101315.70
2019-01-09T07:33:30.511Z,101320.53
2019-01-09T07:36:34.301Z,101316.59
2019-01-09T07:39:38.173Z,101331.05
2019-01-09T07:42:41.999Z,101339.73
2019-01-09T07:45:45.786Z,101335.39
2019-01-09T07:48:49.587Z,101340.95
2019-01-09T07:51:53.400Z,101342.27
2019-01-09T07:54:57.216Z,101345.20
2019-01-09T07:58:01.092Z,101352.14
2019-01-09T08:01:05.056Z,101359.59
2019-01-09T08:04:08.859Z,101367.52
2019-01-09T08:07:12.686Z,101369.20
2019-01-09T08:10:16.492Z,101372.20
2019-01-09T08:13:20.388Z,101384.78
2019-01-09T08:16:24.246Z,101386.09
2019-01-09T08:19:28.058Z,101389.64
2019-01-09T08:22:31.853Z,101399.75
2019-01-09T08:25:35.666Z,101410.98
2019-01-09T08:28:39.463Z,101407.58
2019-01-09T08:31:43.295Z,101417.19
2019-01-09T08:34:47.081Z,101418.88
2019-01-09T08:37:50.902Z,101427.19
2019-01-09T08:40:54.770Z,101428.64
2019-01-09T08:43:58.566Z,101440.89
2019-01-09T08:47:02.369Z,101442.72
2019-01-09T08:50:08.432Z,101446.98
2019-01-09T08:53:12.314Z,101457.16
2019-01-09T08:56:16.115Z,101462.82
2019-01-09T08:59:19.926Z,101465.93
2019-01-09T09:02:23.719Z,101474.27
2019-01-09T09:05:27.520Z,101477.42
2019-01-09T09:08:31.579Z,101482.17
2019-01-09T09:11:35.460Z,101479.10
2019-01-09T09:14:39.343Z,101483.48
2019-01-09T09:17:43.290Z,101496.62
2019-01-09T09:20:47.078Z,101507.23
2019-01-09T09:23:50.898Z,101502.47
2019-01-09T09:26:54.700Z,101502.95
2019-01-09T09:29:58.499Z,101506.02
2019-01-09T09:33:02.395Z,101514.89
2019-01-09T09:36:06.257Z,101510.16
2019-01-09T09:39:11.166Z,101505.85
2019-01-09T09:42:14.974Z,101524.63
2019-01-09T09:45:18.782Z,101528.18
2019-01-09T09:48:22.571Z,101523.72
2019-01-09T09:51:26.457Z,101531.80
2019-01-09T09:54:30.298Z,101535.50
2019-01-09T09:57:34.169Z,101537.06
2019-01-09T10:00:38.065Z,101535.47
2019-01-09T10:03:41.848Z,101542.14
2019-01-09T10:06:45.684Z,101542.72
2019-01-09T10:09:49.559Z,101543.42
2019-01-09T10:12:53.443Z,101549.47
2019-01-09T10:15:57.257Z,101548.61
2019-01-09T10:19:01.104Z,101554.88
2019-01-09T10:22:05.057Z,101560.83
2019-01-09T10:25:09.027Z,101568.56
2019-01-09T10:28:12.914Z,101560.66
2019-01-09T10:31:16.787Z,101569.39
2019-01-09T10:34:20.593Z,101581.58
2019-01-09T10:37:24.557Z,101557.10
2019-01-09T10:40:36.112Z,101578.16
2019-01-09T10:43:34.058Z,101582.96
2019-01-09T10:46:37.939Z,101584.30
2019-01-09T10:49:41.820Z,101593.08
2019-01-09T10:52:45.732Z,101590.97
2019-01-09T10:55:49.597Z,101580.06
2019-01-09T10:58:53.398Z,101577.47
2019-01-09T11:01:57.190Z,101584.48
2019-01-09T11:05:01.022Z,101579.78
2019-01-09T11:08:04.884Z,101588.52
2019-01-09T11:11:08.756Z,101587.59
2019-01-09T11:14:12.614Z,101590.73
2019-01-09T11:17:16.419Z,101588.97
2019-01-09T11:20:21.413Z,101593.77
2019-01-09T11:23:25.296Z,101593.77
2019-01-09T11:26:29.097Z,101597.73
2019-01-09T11:29:32.904Z,101603.02
2019-01-09T11:32:36.813Z,101606.09
2019-01-09T11:35:40.693Z,101606.61
2019-01-09T11:38:44.552Z,101608.85
2019-01-09T11:41:48.412Z,101608.02
2019-01-09T11:44:52.216Z,101604.12
2019-01-09T11:47:56.120Z,101603.73
2019-01-09T11:50:59.928Z,101609.44
2019-01-09T11:54:03.820Z,101612.16
2019-01-09T11:57:07.711Z,101606.93
2019-01-09T12:00:20.642Z,101616.55
2019-01-09T12:03:24.424Z,101622.66
2019-01-09T12:06:28.235Z,101613.91
2019-01-09T12:09:32.149Z,101635.40
2019-01-09T12:12:36.107Z,101623.71
2019-01-09T12:15:39.923Z,101628.52
2019-01-09T12:18:43.762Z,101635.11
2019-01-09T12:21:47.699Z,101641.23
2019-01-09T12:24:51.490Z,101646.48
2019-01-09T12:27:55.302Z,101646.03
2019-01-09T12:30:59.160Z,101665.31
2019-01-09T12:34:03.050Z,101657.44
2019-01-09T12:37:06.910Z,101679.31
2019-01-09T12:40:11.190Z,101672.75
2019-01-09T12:43:15.088Z,101687.64
2019-01-09T12:46:18.901Z,101685.02
2019-01-09T12:49:22.718Z,101693.80
2019-01-09T12:52:26.642Z,101692.52
2019-01-09T12:55:30.502Z,101695.17
2019-01-09T12:58:34.301Z,101709.65
2019-01-09T13:01:38.142Z,101712.73
2019-01-09T13:04:42.065Z,101715.73
2019-01-09T13:07:45.868Z,101725.83
2019-01-09T13:10:49.699Z,101722.38
2019-01-09T13:13:53.509Z,101727.70
2019-01-09T13:16:57.333Z,101728.11
2019-01-09T13:20:01.109Z,101726.38
2019-01-09T13:23:04.949Z,101728.14
2019-01-09T13:26:08.807Z,101734.58
2019-01-09T13:29:12.608Z,101737.23
2019-01-09T13:32:16.552Z,101740.69
2019-01-09T13:35:20.474Z,101760.33
2019-01-09T13:38:24.277Z,101755.07
2019-01-09T13:41:28.103Z,101763.85
2019-01-09T13:44:31.987Z,101762.54
2019-01-09T13:47:35.803Z,101762.92
2019-01-09T13:50:39.742Z,101763.25
2019-01-09T13:53:43.659Z,101768.17
2019-01-09T13:56:47.462Z,101767.23
2019-01-09T13:59:51.269Z,101769.78
2019-01-09T14:02:55.144Z,101779.34
2019-01-09T14:05:59.009Z,101787.11
2019-01-09T14:09:03.157Z,101784.56
2019-01-09T14:12:07.026Z,101787.23
2019-01-09T14:15:13.355Z,101794.17
2019-01-09T14:18:17.196Z,101792.37
2019-01-09T14:21:21.003Z,101797.13
2019-01-09T14:24:24.910Z,101809.77
2019-01-09T14:27:28.697Z,101807.50
2019-01-09T14:30:32.602Z,101810.17
2019-01-09T14:33:36.381Z,101810.50
2019-01-09T14:36:40.261Z,101811.81
2019-01-09T14:39:48.123Z,101817.52
2019-01-09T14:42:49.678Z,101817.88
2019-01-09T14:45:53.462Z,101810.33
2019-01-09T14:48:57.292Z,101815.54
2019-01-09T14:52:01.199Z,101819.92
2019-01-09T14:55:06.190Z,101830.37
2019-01-09T14:58:10.073Z,101829.39
2019-01-09T15:01:13.958Z,101838.98
2019-01-09T15:04:17.864Z,101833.55
2019-01-09T15:07:21.749Z,101833.14
2019-01-09T15:10:28.010Z,101839.87
2019-01-09T15:13:31.862Z,101846.06
2019-01-09T15:16:35.828Z,101855.11
2019-01-09T15:19:39.808Z,101850.37
2019-01-09T15:22:43.669Z,101861.16
2019-01-09T15:25:49.045Z,101865.72
2019-01-09T15:28:53.062Z,101858.84
2019-01-09T15:31:56.880Z,101861.61
2019-01-09T15:35:00.786Z,101870.70
2019-01-09T15:38:04.763Z,101864.09
2019-01-09T15:41:08.706Z,101875.99
2019-01-09T15:44:12.527Z,101876.85
2019-01-09T15:47:16.365Z,101879.98
2019-01-09T15:50:21.135Z,101890.07
2019-01-09T15:53:25.016Z,101881.75
2019-01-09T15:56:28.930Z,101882.20
2019-01-09T15:59:32.747Z,101890.47
2019-01-09T16:02:36.599Z,101897.53
2019-01-09T16:05:40.469Z,101897.03
2019-01-09T16:08:44.300Z,101905.19
2019-01-09T16:11:48.934Z,101915.48
2019-01-09T16:14:52.813Z,101920.67
2019-01-09T16:17:56.764Z,101925.20
2019-01-09T16:21:00.653Z,101923.33
2019-01-09T16:24:04.538Z,101931.50
2019-01-09T16:27:08.352Z,101930.66
2019-01-09T16:30:33.918Z,101936.69
2019-01-09T16:33:33.301Z,101941.92
2019-01-09T16:36:37.701Z,101941.42
2019-01-09T16:39:41.585Z,101952.18
2019-01-09T16:42:45.412Z,101957.82
2019-01-09T16:45:49.362Z,101954.41
2019-01-09T16:48:53.319Z,101961.83
2019-01-09T16:51:57.143Z,101964.68
2019-01-09T16:55:00.998Z,101979.20
2019-01-09T16:58:05.161Z,101982.97
2019-01-09T17:01:09.121Z,101989.30
2019-01-09T17:04:12.989Z,101991.47
2019-01-09T17:07:17.044Z,101989.13
2019-01-09T17:10:20.999Z,101995.67
2019-01-09T17:13:24.905Z,102008.45
2019-01-09T17:16:28.726Z,102013.17
2019-01-09T17:19:32.614Z,102014.72
2019-01-09T17:22:36.481Z,102021.91
2019-01-09T17:25:40.371Z,102031.41
2019-01-09T17:28:44.619Z,102022.02
2019-01-09T17:31:48.436Z,102025.61
2019-01-09T17:34:52.229Z,102025.03
2019-01-09T17:37:56.180Z,102026.98
2019-01-09T17:40:59.979Z,102028.02
2019-01-09T17:44:04.059Z,102034.22
2019-01-09T17:47:07.918Z,102045.45
2019-01-09T17:50:19.127Z,102047.45
2019-01-09T17:53:23.035Z,102051.85
2019-01-09T17:56:26.883Z,102055.27
2019-01-09T17:59:32.647Z,102053.50
2019-01-09T18:02:36.375Z,102057.49
2019-01-09T18:05:40.174Z,102058.68
2019-01-09T18:08:44.024Z,102056.64
2019-01-09T18:11:47.841Z,102060.91
2019-01-09T18:14:51.950Z,102061.43
2019-01-09T18:17:55.921Z,102061.36
2019-01-09T18:20:59.737Z,102075.80
2019-01-09T18:24:03.697Z,102075.27
2019-01-09T18:27:07.667Z,102081.61
2019-01-09T18:30:20.550Z,102087.76
2019-01-09T18:33:36.587Z,102083.08
2019-01-09T18:36:56.821Z,102091.31
2019-01-09T18:40:29.069Z,102095.63
2019-01-09T18:43:42.738Z,102101.11
2019-01-09T18:47:12.638Z,102097.70
2019-01-09T18:50:50.642Z,102102.31
2019-01-09T18:53:55.630Z,102111.48
2019-01-09T18:56:59.518Z,102116.78
2019-01-09T19:00:03.495Z,102114.95
2019-01-09T19:03:07.616Z,102128.45
2019-01-09T19:06:11.500Z,102135.07
2019-01-09T19:09:15.460Z,102136.33
2019-01-09T19:12:19.340Z,102141.63
2019-01-09T19:15:23.325Z,102150.18
2019-01-09T19:18:27.196Z,102147.55
2019-01-09T19:21:31.159Z,102141.12
2019-01-09T19:24:35.142Z,102142.95
2019-01-09T19:27:39.109Z,102155.41
2019-01-09T19:30:43.002Z,102150.88
2019-01-09T19:33:46.953Z,102149.72
2019-01-09T19:36:50.935Z,102150.18
2019-01-09T19:39:54.948Z,102148.94
2019-01-09T19:42:58.694Z,102154.50
2019-01-09T19:46:02.655Z,102147.34
2019-01-09T19:49:06.631Z,102150.50
2019-01-09T19:52:10.500Z,102157.84
2019-01-09T19:55:14.706Z,102154.24
2019-01-09T19:58:18.585Z,102151.89
2019-01-09T20:01:22.642Z,102158.38
2019-01-09T20:04:26.607Z,102167.62
2019-01-09T20:07:30.526Z,102168.78
2019-01-09T20:10:34.490Z,102175.63
2019-01-09T20:13:38.483Z,102175.28
2019-01-09T20:16:42.433Z,102187.78
2019-01-09T20:19:46.364Z,102180.84
2019-01-09T20:22:51.661Z,102194.74
2019-01-09T20:25:55.643Z,102196.56
2019-01-09T20:28:59.471Z,102200.55
2019-01-09T20:32:03.399Z,102207.31
2019-01-09T20:35:07.696Z,102210.32
2019-01-09T20:38:11.571Z,102214.29
2019-01-09T20:41:15.521Z,102225.05
2019-01-09T20:44:19.394Z,102223.23
2019-01-09T20:47:23.376Z,102223.34
2019-01-09T20:50:29.923Z,102230.78
2019-01-09T20:53:33.872Z,102234.63
2019-01-09T20:56:37.635Z,102239.70
2019-01-09T20:59:42.633Z,102243.46
2019-01-09T21:02:46.732Z,102249.38
2019-01-09T21:05:52.629Z,102244.63
2019-01-09T21:08:59.667Z,102247.84
2019-01-09T21:12:02.117Z,102237.39
2019-01-09T21:15:07.271Z,102249.36
2019-01-09T21:18:11.232Z,102255.86
2019-01-09T21:21:15.148Z,102253.99
2019-01-09T21:24:19.184Z,102255.53
2019-01-09T21:27:23.009Z,102262.61
2019-01-09T21:30:26.923Z,102260.84
2019-01-09T21:33:30.763Z,102265.95
2019-01-09T21:36:34.720Z,102270.45
2019-01-09T21:39:38.599Z,102268.83
2019-01-09T21:42:42.485Z,102276.38
2019-01-09T21:45:46.376Z,102275.97
2019-01-09T21:48:50.168Z,102268.96
2019-01-09T21:51:54.081Z,102273.84
2019-01-09T21:54:57.908Z,102273.81
2019-01-09T21:58:01.691Z,102264.75
2019-01-09T22:01:05.635Z,102270.55
2019-01-09T22:04:09.441Z,102266.31
2019-01-09T22:07:15.329Z,102266.88
2019-01-09T22:10:24.807Z,102270.27
2019-01-09T22:13:28.719Z,102279.62
2019-01-09T22:16:32.606Z,102279.06
2019-01-09T22:19:36.495Z,102277.09
2019-01-09T22:22:40.299Z,102282.31
2019-01-09T22:25:44.283Z,102289.66
2019-01-09T22:28:48.163Z,102291.56
2019-01-09T22:31:52.046Z,102298.04
2019-01-09T22:34:56.033Z,102295.45
2019-01-09T22:37:59.966Z,102296.09
2019-01-09T22:41:03.941Z,102293.11
2019-01-09T22:44:07.752Z,102297.94
2019-01-09T22:47:11.651Z,102289.66
2019-01-09T22:50:20.653Z,102295.05
2019-01-09T22:53:24.536Z,102286.67
2019-01-09T22:56:28.423Z,102294.69
2019-01-09T22:59:32.231Z,102297.33
2019-01-09T23:02:36.107Z,102292.11
2019-01-09T23:05:40.615Z,102290.09
2019-01-09T23:08:44.485Z,102299.48
2019-01-09T23:11:48.357Z,102290.39
2019-01-09T23:14:52.238Z,102300.97
2019-01-09T23:17:56.421Z,102299.07
2019-01-09T23:21:00.281Z,102295.52
2019-01-09T23:24:04.369Z,102290.33
2019-01-09T23:27:08.229Z,102296.77
2019-01-09T23:30:12.399Z,102296.66
2019-01-09T23:33:16.359Z,102297.78
2019-01-09T23:36:20.329Z,102296.03
2019-01-09T23:39:24.187Z,102308.14
2019-01-09T23:42:30.531Z,102299.94
2019-01-09T23:45:33.631Z,102313.73
2019-01-09T23:48:37.436Z,102306.63
2019-01-09T23:51:41.389Z,102310.08
2019-01-09T23:54:45.190Z,102318.52
2019-01-09T23:57:48.996Z,102316.86
